Time;durP1;ratioP1;P1;durP2;ratioP2;P2;SDS_P1;SDS_P2;PMS_P1;PMS_P2;Temp;Humidity;BMP_temperature;BMP_pressure;BME280_temperature;BME280_humidity;BME280_pressure;Samples;Min_cycle;Max_cycle;Signal;HPM_P1;HPM_P2
2022/08/14 00:00:20;;;;;;;;;;;;;;;22.98;40.00;99424.28;1083618;54;19946;-75
2022/08/14 00:01:24;;;;;;;;;;;;;;;22.99;39.55;99425.94;1083867;54;19951;-75
2022/08/14 00:02:26;;;;;;;;;;;;;;;22.97;40.21;99424.50;1083881;54;20462;-75
2022/08/14 00:03:30;;;;;;;;;;;;;;;22.97;39.81;99427.22;1083829;54;19950;-75
2022/08/14 00:04:32;;;;;;;;;;;;;;;22.96;39.81;99418.22;1083652;54;20041;-75
2022/08/14 00:05:39;;;;;;;;;;;;;;;22.99;39.64;99420.50;1083902;54;19947;-76
2022/08/14 00:06:40;;;;;;;;;;;;;;;23.02;39.36;99419.16;1083602;54;19947;-75
2022/08/14 00:07:43;;;;;;;;;;;;;;;23.03;39.23;99415.38;1083984;54;19947;-75
2022/08/14 00:08:45;;;;;;;;;;;;;;;23.06;39.08;99409.41;1083767;54;20426;-75
2022/08/14 00:09:48;;;;;;;;;;;;;;;23.05;39.49;99410.47;1083463;54;19981;-75
2022/08/14 00:10:52;;;;;;;;;;;;;;;22.94;40.06;99411.38;1083581;54;19958;-75
2022/08/14 00:11:55;;;;;;;;;;;;;;;22.95;39.80;99408.41;1083779;54;20784;-75
2022/08/14 00:12:58;;;;;;;;;;;;;;;22.93;39.98;99404.28;1083488;54;19974;-76
2022/08/14 00:14:00;;;;;;;;;;;;;;;22.97;39.87;99408.16;1083789;54;19946;-75
2022/08/14 00:15:06;;;;;;;;;;;;;;;22.98;40.01;99402.47;1083370;54;19950;-75
2022/08/14 00:16:13;;;;;;;;;;;;;;;22.93;40.46;99412.44;1084285;39;20346;-75
2022/08/14 00:17:14;;;;;;;;;;;;;;;22.90;40.80;99402.88;1084553;39;20311;-75
2022/08/14 00:18:19;;;;;;;;;;;;;;;22.88;41.23;99408.53;1083303;54;20511;-75
2022/08/14 00:19:20;;;;;;;;;;;;;;;22.87;41.07;99406.06;1083576;54;19950;-75
2022/08/14 00:20:26;;;;;;;;;;;;;;;22.88;40.84;99410.44;1083431;54;19951;-75
2022/08/14 00:21:31;;;;;;;;;;;;;;;22.86;40.75;99407.13;1083294;54;19947;-75
2022/08/14 00:22:34;;;;;;;;;;;;;;;22.83;40.59;99403.00;1083693;54;19958;-75
2022/08/14 00:23:38;;;;;;;;;;;;;;;22.87;40.88;99401.44;1083476;54;20087;-75
2022/08/14 00:24:39;;;;;;;;;;;;;;;22.86;40.89;99401.69;1083559;54;20452;-75
2022/08/14 00:25:43;;;;;;;;;;;;;;;22.85;40.98;99398.13;1083569;54;19946;-75
2022/08/14 00:26:45;;;;;;;;;;;;;;;22.84;40.82;99396.47;1083632;54;19962;-75
2022/08/14 00:27:49;;;;;;;;;;;;;;;22.83;41.18;99389.38;1083634;54;20429;-75
2022/08/14 00:28:53;;;;;;;;;;;;;;;22.81;41.26;99398.88;1083646;54;19943;-76
2022/08/14 00:29:54;;;;;;;;;;;;;;;22.80;40.97;99397.19;1083530;54;19943;-75
2022/08/14 00:30:59;;;;;;;;;;;;;;;22.78;41.35;99391.97;1083746;54;20445;-75
2022/08/14 00:32:00;;;;;;;;;;;;;;;22.68;42.06;99383.59;1083440;54;19973;-75
2022/08/14 00:33:03;;;;;;;;;;;;;;;22.73;41.53;99389.97;1083240;54;19987;-75
2022/08/14 00:34:05;;;;;;;;;;;;;;;22.67;42.43;99381.97;1083716;54;19946;-75
2022/08/14 00:35:10;;;;;;;;;;;;;;;22.65;41.79;99373.19;1083593;54;19946;-75
2022/08/14 00:36:11;;;;;;;;;;;;;;;22.66;41.83;99378.41;1083683;54;19970;-75
2022/08/14 00:37:18;;;;;;;;;;;;;;;22.66;42.53;99386.56;1083457;54;19950;-75
2022/08/14 00:38:20;;;;;;;;;;;;;;;22.68;41.69;99380.88;1083722;54;19953;-75
2022/08/14 00:39:24;;;;;;;;;;;;;;;22.68;41.82;99375.41;1084021;39;20350;-75
2022/08/14 00:40:25;;;;;;;;;;;;;;;22.64;42.37;99369.63;1083577;54;19954;-75
2022/08/14 00:41:32;;;;;;;;;;;;;;;22.56;42.58;99373.56;1083325;54;19958;-76
2022/08/14 00:42:33;;;;;;;;;;;;;;;22.59;42.34;99372.25;1083705;54;19950;-75
2022/08/14 00:43:37;;;;;;;;;;;;;;;22.57;42.19;99372.50;1083397;54;19953;-75
2022/08/14 00:44:38;;;;;;;;;;;;;;;22.55;42.71;99371.91;1083222;54;19959;-75
2022/08/14 00:45:42;;;;;;;;;;;;;;;22.57;42.50;99364.34;1083687;54;20409;-75
2022/08/14 00:46:44;;;;;;;;;;;;;;;22.49;42.71;99361.97;1083482;54;19947;-75
2022/08/14 00:47:49;;;;;;;;;;;;;;;22.52;42.68;99366.13;1084790;39;20438;-75
2022/08/14 00:48:50;;;;;;;;;;;;;;;22.50;42.69;99360.91;1083711;54;20057;-75
2022/08/14 00:49:55;;;;;;;;;;;;;;;22.51;42.99;99359.03;1083284;54;19938;-75
2022/08/14 00:50:56;;;;;;;;;;;;;;;22.51;43.24;99368.00;1083344;54;20085;-75
2022/08/14 00:52:00;;;;;;;;;;;;;;;22.52;42.88;99355.22;1083159;54;19962;-75
2022/08/14 00:53:06;;;;;;;;;;;;;;;22.50;43.37;99347.28;1083677;54;19954;-75
2022/08/14 00:54:10;;;;;;;;;;;;;;;22.44;43.78;99356.44;1083219;54;19970;-75
2022/08/14 00:55:11;;;;;;;;;;;;;;;22.36;44.14;99356.78;1083555;54;19992;-75
2022/08/14 00:56:15;;;;;;;;;;;;;;;22.34;43.92;99354.25;1083451;54;19951;-75
2022/08/14 00:57:17;;;;;;;;;;;;;;;22.33;44.15;99352.63;1083247;54;20465;-75
2022/08/14 00:58:33;;;;;;;;;;;;;;;22.32;44.21;99352.84;1083396;54;19939;-75
2022/08/14 00:59:34;;;;;;;;;;;;;;;22.27;44.40;99348.13;1083410;54;19939;-75
2022/08/14 01:00:38;;;;;;;;;;;;;;;22.19;45.13;99356.66;1083330;54;19958;-75
2022/08/14 01:01:42;;;;;;;;;;;;;;;22.18;45.17;99355.00;1083161;54;19969;-75
2022/08/14 01:02:43;;;;;;;;;;;;;;;22.11;45.26;99349.69;1083490;54;19955;-75
2022/08/14 01:03:47;;;;;;;;;;;;;;;22.11;45.58;99347.81;1083104;54;19942;-75
2022/08/14 01:04:48;;;;;;;;;;;;;;;22.12;45.17;99352.19;1083329;54;19950;-76
2022/08/14 01:05:53;;;;;;;;;;;;;;;22.16;45.58;99352.53;1083805;39;20274;-75
2022/08/14 01:06:54;;;;;;;;;;;;;;;22.19;45.61;99354.78;1084300;39;20351;-76
2022/08/14 01:07:59;;;;;;;;;;;;;;;22.17;45.43;99356.91;1083710;54;20438;-75
2022/08/14 01:09:03;;;;;;;;;;;;;;;22.27;44.91;99354.41;1084177;39;20349;-75
2022/08/14 01:10:07;;;;;;;;;;;;;;;22.23;45.59;99355.13;1083466;54;19945;-75
2022/08/14 01:11:09;;;;;;;;;;;;;;;22.23;45.08;99357.84;1084028;46;20421;-76
2022/08/14 01:12:13;;;;;;;;;;;;;;;22.25;45.53;99352.97;1083730;39;20345;-75
2022/08/14 01:13:16;;;;;;;;;;;;;;;22.24;45.52;99351.34;1083577;54;19966;-76
2022/08/14 01:14:20;;;;;;;;;;;;;;;22.24;45.82;99349.44;1084603;39;20354;-75
2022/08/14 01:15:21;;;;;;;;;;;;;;;22.28;45.08;99349.78;1083933;46;19966;-75
2022/08/14 01:16:25;;;;;;;;;;;;;;;22.28;45.43;99347.91;1083630;54;20013;-75
2022/08/14 01:21:02;;;;;;;;;;;;;;;22.34;45.32;99348.00;1083475;54;19947;-75
2022/08/14 01:21:31;;;;;;;;;;;;;;;22.36;44.92;99346.69;1083672;54;19971;-75
2022/08/14 01:22:33;;;;;;;;;;;;;;;22.34;45.97;99353.44;1083376;54;19950;-75
2022/08/14 01:23:38;;;;;;;;;;;;;;;22.29;46.05;99352.25;1083381;54;19977;-75
2022/08/14 01:24:40;;;;;;;;;;;;;;;22.29;46.13;99354.97;1083487;54;20437;-75
2022/08/14 01:25:43;;;;;;;;;;;;;;;22.28;46.12;99356.06;1083569;54;19981;-75
2022/08/14 01:26:45;;;;;;;;;;;;;;;22.27;46.30;99359.00;1083667;54;19965;-76
2022/08/14 01:27:49;;;;;;;;;;;;;;;22.17;45.38;99350.63;1083445;54;19975;-76
2022/08/14 01:28:54;;;;;;;;;;;;;;;22.14;45.68;99349.22;1083580;54;19943;-75
2022/08/14 01:29:59;;;;;;;;;;;;;;;21.77;46.57;99360.34;1083832;39;20617;-75
2022/08/14 01:31:00;;;;;;;;;;;;;;;21.51;47.03;99356.97;1083968;39;20333;-75
2022/08/14 01:32:04;;;;;;;;;;;;;;;21.33;47.23;99360.59;1083430;54;19994;-76
2022/08/14 01:33:05;;;;;;;;;;;;;;;21.17;47.50;99362.06;1083481;54;19950;-75
2022/08/14 01:34:09;;;;;;;;;;;;;;;21.11;47.73;99363.81;1083519;54;20430;-75
2022/08/14 01:35:10;;;;;;;;;;;;;;;21.13;47.82;99356.28;1083735;54;19947;-75
2022/08/14 01:36:15;;;;;;;;;;;;;;;21.19;47.59;99365.38;1083399;54;20050;-75
2022/08/14 01:37:23;;;;;;;;;;;;;;;21.03;47.93;99364.13;1083534;54;19950;-75
2022/08/14 01:38:25;;;;;;;;;;;;;;;20.84;48.21;99366.09;1083166;54;20020;-75
2022/08/14 01:39:29;;;;;;;;;;;;;;;20.67;48.89;99360.41;1083346;54;19981;-75
2022/08/14 01:40:30;;;;;;;;;;;;;;;20.52;49.35;99352.66;1083135;54;20046;-76
2022/08/14 01:41:35;;;;;;;;;;;;;;;20.41;49.61;99356.97;1083417;54;19958;-75
2022/08/14 01:42:36;;;;;;;;;;;;;;;20.30;49.96;99353.13;1083116;54;19975;-75
2022/08/14 01:43:47;;;;;;;;;;;;;;;20.21;50.03;99349.06;1084394;39;20346;-75
2022/08/14 01:44:51;;;;;;;;;;;;;;;20.13;50.46;99352.88;1083181;54;20040;-75
2022/08/14 01:45:55;;;;;;;;;;;;;;;20.02;50.79;99346.31;1083459;54;19950;-76
2022/08/14 01:46:57;;;;;;;;;;;;;;;20.02;50.75;99346.31;1083395;54;19938;-75
2022/08/14 01:48:01;;;;;;;;;;;;;;;19.95;50.94;99348.25;1083209;46;19947;-75
2022/08/14 01:49:03;;;;;;;;;;;;;;;19.94;50.67;99354.72;1083640;54;19951;-75
2022/08/14 01:50:07;;;;;;;;;;;;;;;19.87;50.79;99346.66;1083175;54;19951;-75
2022/08/14 01:51:09;;;;;;;;;;;;;;;19.82;51.15;99353.78;1083458;54;19951;-75
2022/08/14 01:52:12;;;;;;;;;;;;;;;19.75;51.14;99348.41;1083580;54;19946;-75
2022/08/14 01:53:16;;;;;;;;;;;;;;;19.70;51.02;99349.06;1083395;54;19947;-75
2022/08/14 01:54:20;;;;;;;;;;;;;;;19.70;50.90;99349.06;1083494;54;19963;-75
2022/08/14 01:55:24;;;;;;;;;;;;;;;19.70;50.68;99348.22;1083727;54;20033;-75
2022/08/14 01:56:35;;;;;;;;;;;;;;;19.61;50.73;99350.41;1083598;54;20746;-75
2022/08/14 01:57:36;;;;;;;;;;;;;;;19.52;50.79;99344.41;1083628;54;19978;-75
2022/08/14 01:58:41;;;;;;;;;;;;;;;19.47;50.44;99345.06;1083731;54;19951;-75
2022/08/14 01:59:43;;;;;;;;;;;;;;;19.39;50.93;99337.22;1084658;54;19953;-75
2022/08/14 02:00:51;;;;;;;;;;;;;;;19.38;50.58;99335.56;1085638;54;19966;-75
2022/08/14 02:02:59;;;;;;;;;;;;;;;19.36;50.47;99331.41;1083207;54;19947;-76
2022/08/14 02:04:00;;;;;;;;;;;;;;;19.31;50.29;99329.34;1083444;54;20061;-74
2022/08/14 02:05:04;;;;;;;;;;;;;;;19.27;50.33;99328.97;1083115;54;19958;-77
2022/08/14 02:06:05;;;;;;;;;;;;;;;19.22;50.40;99326.09;1083363;54;19958;-75
2022/08/14 02:07:10;;;;;;;;;;;;;;;19.19;50.68;99318.41;1083364;54;20695;-75
2022/08/14 02:08:12;;;;;;;;;;;;;;;19.18;50.60;99314.03;1083860;54;19957;-75
2022/08/14 02:09:19;;;;;;;;;;;;;;;19.27;50.63;99311.91;1083890;39;20413;-74
2022/08/14 02:10:20;;;;;;;;;;;;;;;19.33;50.17;99305.59;1083380;54;19973;-75
2022/08/14 02:11:25;;;;;;;;;;;;;;;19.36;50.09;99307.88;1083375;54;19946;-74
2022/08/14 02:12:26;;;;;;;;;;;;;;;19.35;50.04;99302.66;1083879;39;20482;-74
2022/08/14 02:13:30;;;;;;;;;;;;;;;19.35;50.07;99306.22;1083451;54;19950;-74
2022/08/14 02:14:32;;;;;;;;;;;;;;;19.31;50.53;99304.97;1083383;54;19962;-74
2022/08/14 02:15:36;;;;;;;;;;;;;;;19.25;50.53;99303.16;1083667;39;20392;-75
2022/08/14 02:16:39;;;;;;;;;;;;;;;19.29;50.35;99307.06;1083053;54;19951;-74
2022/08/14 02:17:43;;;;;;;;;;;;;;;19.25;50.57;99305.88;1083309;54;19943;-75
2022/08/14 02:18:45;;;;;;;;;;;;;;;19.25;50.72;99297.75;1083925;39;20827;-75
2022/08/14 02:19:49;;;;;;;;;;;;;;;19.20;50.45;99305.69;1082889;54;19954;-75
2022/08/14 02:20:50;;;;;;;;;;;;;;;19.15;50.50;99304.47;1086347;31;20429;-75
2022/08/14 02:21:57;;;;;;;;;;;;;;;19.11;50.60;99302.41;1083169;54;20042;-74
2022/08/14 02:22:58;;;;;;;;;;;;;;;19.02;50.67;99304.56;1083257;54;20760;-74
2022/08/14 02:24:03;;;;;;;;;;;;;;;19.02;50.48;99316.22;1084399;31;20439;-74
2022/08/14 02:25:08;;;;;;;;;;;;;;;18.99;50.69;99313.09;1083737;39;20218;-74
2022/08/14 02:26:13;;;;;;;;;;;;;;;18.99;50.81;99313.09;1083737;54;20014;-73
2022/08/14 02:27:19;;;;;;;;;;;;;;;19.00;50.66;99315.63;1083536;54;20034;-74
2022/08/14 02:28:20;;;;;;;;;;;;;;;19.02;50.40;99318.09;1083636;54;19939;-73
2022/08/14 02:29:25;;;;;;;;;;;;;;;18.94;50.56;99312.94;1083463;54;20051;-74
2022/08/14 02:30:26;;;;;;;;;;;;;;;18.86;50.94;99331.06;1083100;54;19971;-74
2022/08/14 02:31:31;;;;;;;;;;;;;;;18.79;51.41;99316.75;1083488;54;19974;-74
2022/08/14 02:32:33;;;;;;;;;;;;;;;18.71;51.82;99319.69;1083257;54;19938;-73
2022/08/14 02:33:37;;;;;;;;;;;;;;;18.65;51.96;99316.00;1083742;46;20006;-74
2022/08/14 02:34:38;;;;;;;;;;;;;;;18.59;52.60;99318.72;1083342;54;19943;-73
2022/08/14 02:35:43;;;;;;;;;;;;;;;18.62;52.56;99311.00;1083117;54;19962;-76
2022/08/14 02:36:46;;;;;;;;;;;;;;;18.58;52.55;99315.16;1083751;54;19969;-73
2022/08/14 02:37:50;;;;;;;;;;;;;;;18.49;52.98;99311.88;1083598;54;19946;-74
2022/08/14 02:38:51;;;;;;;;;;;;;;;18.47;53.16;99313.97;1083390;54;19962;-74
2022/08/14 02:39:56;;;;;;;;;;;;;;;18.48;52.76;99310.22;1083128;54;19969;-74
2022/08/14 02:40:59;;;;;;;;;;;;;;;18.52;52.76;99322.25;1083341;54;19942;-74
2022/08/14 02:42:04;;;;;;;;;;;;;;;18.43;52.99;99312.72;1083561;54;19946;-74
2022/08/14 02:43:05;;;;;;;;;;;;;;;18.35;53.07;99313.81;1083075;54;19961;-74
2022/08/14 02:44:10;;;;;;;;;;;;;;;18.33;52.95;99317.75;1083766;54;19950;-74
2022/08/14 02:45:12;;;;;;;;;;;;;;;18.33;53.05;99318.59;1083267;46;19951;-73
2022/08/14 02:46:16;;;;;;;;;;;;;;;18.23;53.44;99319.03;1083784;39;20333;-73
2022/08/14 02:47:18;;;;;;;;;;;;;;;18.26;53.26;99312.41;1083539;54;19951;-74
2022/08/14 02:48:21;;;;;;;;;;;;;;;18.40;52.74;99311.28;1083084;54;19954;-73
2022/08/14 02:49:25;;;;;;;;;;;;;;;18.59;52.07;99311.41;1083591;54;19946;-73
2022/08/14 02:50:29;;;;;;;;;;;;;;;18.63;52.11;99309.97;1083266;39;20026;-72
2022/08/14 02:51:32;;;;;;;;;;;;;;;18.55;52.56;99300.19;1083139;54;19956;-75
2022/08/14 02:52:33;;;;;;;;;;;;;;;18.70;52.34;99307.22;1083114;54;19938;-76
2022/08/14 02:53:38;;;;;;;;;;;;;;;18.63;52.53;99301.00;1083089;54;19954;-76
2022/08/14 02:54:39;;;;;;;;;;;;;;;18.76;51.91;99294.66;1083247;54;19938;-76
2022/08/14 02:55:45;;;;;;;;;;;;;;;18.63;52.59;99290.16;1082883;54;19946;-76
2022/08/14 02:56:53;;;;;;;;;;;;;;;18.61;52.69;99292.28;1083506;54;19946;-75
2022/08/14 02:57:54;;;;;;;;;;;;;;;18.55;53.02;99292.06;1083980;31;20405;-75
2022/08/14 02:59:00;;;;;;;;;;;;;;;18.53;52.92;99296.88;1082980;54;19946;-76
2022/08/14 03:00:03;;;;;;;;;;;;;;;18.58;52.97;99292.69;1083169;54;20033;-76
2022/08/14 03:01:07;;;;;;;;;;;;;;;18.57;53.02;99288.31;1082841;54;19946;-74
2022/08/14 03:02:08;;;;;;;;;;;;;;;18.58;52.99;99287.28;1083257;39;20368;-74
2022/08/14 03:03:12;;;;;;;;;;;;;;;18.52;53.36;99287.09;1083173;39;20469;-73
2022/08/14 03:04:13;;;;;;;;;;;;;;;18.59;53.00;99289.75;1082609;54;19947;-74
2022/08/14 03:05:17;;;;;;;;;;;;;;;18.61;53.12;99293.09;1083048;54;19946;-74
2022/08/14 03:06:19;;;;;;;;;;;;;;;18.59;53.27;99283.53;1082854;54;20491;-74
2022/08/14 03:07:24;;;;;;;;;;;;;;;18.61;53.13;99286.88;1083128;54;19946;-74
2022/08/14 03:08:30;;;;;;;;;;;;;;;18.55;53.40;99289.38;1082954;54;20006;-75
2022/08/14 03:09:34;;;;;;;;;;;;;;;18.58;53.21;99288.09;1083509;54;19972;-72
2022/08/14 03:10:35;;;;;;;;;;;;;;;18.61;53.11;99293.09;1083573;54;19977;-73
2022/08/14 03:11:41;;;;;;;;;;;;;;;18.59;53.32;99283.53;1083224;54;20504;-75
2022/08/14 03:12:45;;;;;;;;;;;;;;;18.51;53.72;99288.16;1083635;54;19958;-74
2022/08/14 03:13:51;;;;;;;;;;;;;;;18.45;54.04;99274.66;1083109;54;19958;-74
2022/08/14 03:14:52;;;;;;;;;;;;;;;18.43;53.91;99279.44;1083460;54;20437;-75
2022/08/14 03:15:56;;;;;;;;;;;;;;;18.38;54.11;99282.78;1083151;46;19974;-76
2022/08/14 03:16:57;;;;;;;;;;;;;;;18.27;54.47;99286.16;1083513;39;20359;-75
2022/08/14 03:18:01;;;;;;;;;;;;;;;18.20;54.68;99281.63;1083338;54;19947;-76
2022/08/14 03:19:04;;;;;;;;;;;;;;;18.15;54.34;99278.69;1083282;54;19950;-73
2022/08/14 03:20:08;;;;;;;;;;;;;;;18.09;54.72;99287.69;1083330;54;20450;-75
2022/08/14 03:21:12;;;;;;;;;;;;;;;18.00;55.30;99284.34;1083256;54;19946;-75
2022/08/14 03:22:15;;;;;;;;;;;;;;;17.97;55.28;99281.25;1083167;54;19947;-74
2022/08/14 03:23:17;;;;;;;;;;;;;;;17.96;55.39;99283.13;1083450;54;19939;-74
2022/08/14 03:24:21;;;;;;;;;;;;;;;17.89;55.47;99269.59;1083195;54;19946;-75
2022/08/14 03:25:22;;;;;;;;;;;;;;;17.91;55.33;99278.34;1083499;54;20054;-74
2022/08/14 03:26:28;;;;;;;;;;;;;;;17.85;55.57;99272.94;1083184;54;19961;-74
2022/08/14 03:27:30;;;;;;;;;;;;;;;17.83;55.40;99269.59;1083300;54;19951;-74
2022/08/14 03:28:39;;;;;;;;;;;;;;;17.76;55.44;99275.88;1083317;39;20140;-75
2022/08/14 03:29:40;;;;;;;;;;;;;;;17.78;55.17;99275.66;1083414;54;19946;-73
2022/08/14 03:30:44;;;;;;;;;;;;;;;17.73;55.31;99278.97;1083456;54;19947;-74
2022/08/14 03:31:48;;;;;;;;;;;;;;;17.75;55.31;99278.78;1083197;54;19946;-73
2022/08/14 03:32:52;;;;;;;;;;;;;;;17.73;55.15;99278.16;1083302;54;20035;-74
2022/08/14 03:33:56;;;;;;;;;;;;;;;17.76;55.35;99270.47;1083464;54;19974;-74
2022/08/14 03:34:57;;;;;;;;;;;;;;;17.78;54.94;99275.66;1083186;54;19950;-73
2022/08/14 03:36:01;;;;;;;;;;;;;;;17.78;54.98;99275.66;1083749;54;19977;-73
2022/08/14 03:37:05;;;;;;;;;;;;;;;17.79;55.36;99271.91;1083435;54;19947;-73
2022/08/14 03:38:07;;;;;;;;;;;;;;;17.80;55.04;99270.06;1083512;54;19962;-74
2022/08/14 03:39:12;;;;;;;;;;;;;;;17.86;55.15;99270.00;1083258;54;19947;-73
2022/08/14 03:40:14;;;;;;;;;;;;;;;17.95;54.78;99273.34;1083142;54;19957;-73
2022/08/14 03:41:19;;;;;;;;;;;;;;;18.05;54.25;99267.50;1083749;54;19954;-73
2022/08/14 03:42:24;;;;;;;;;;;;;;;18.12;54.36;99273.75;1083135;54;19985;-74
2022/08/14 03:43:25;;;;;;;;;;;;;;;18.21;53.96;99266.19;1083486;54;19973;-74
2022/08/14 03:44:34;;;;;;;;;;;;;;;18.31;53.64;99276.59;1083554;54;19950;-74
2022/08/14 03:45:37;;;;;;;;;;;;;;;18.39;53.42;99270.94;1083435;54;20513;-74
2022/08/14 03:46:41;;;;;;;;;;;;;;;18.44;53.03;99268.41;1083616;54;19947;-74
2022/08/14 03:47:42;;;;;;;;;;;;;;;18.42;53.54;99267.78;1083404;54;19943;-74
2022/08/14 03:48:47;;;;;;;;;;;;;;;18.37;53.62;99271.13;1083362;54;19951;-74
2022/08/14 03:49:51;;;;;;;;;;;;;;;18.39;53.61;99268.22;1083141;54;19946;-74
2022/08/14 03:50:52;;;;;;;;;;;;;;;18.37;53.41;99264.91;1083353;54;19946;-74
2022/08/14 03:51:56;;;;;;;;;;;;;;;18.23;53.85;99264.94;1083417;54;19947;-74
2022/08/14 03:52:58;;;;;;;;;;;;;;;18.19;54.22;99269.13;1083520;54;19950;-74
2022/08/14 03:54:02;;;;;;;;;;;;;;;18.19;54.30;99268.28;1083659;54;20473;-75
2022/08/14 03:55:05;;;;;;;;;;;;;;;18.21;54.28;99263.50;1083394;54;20500;-74
2022/08/14 03:56:11;;;;;;;;;;;;;;;18.30;53.95;99264.91;1083438;54;19970;-77
2022/08/14 03:57:13;;;;;;;;;;;;;;;18.45;53.17;99271.94;1083247;54;19945;-75
2022/08/14 03:58:17;;;;;;;;;;;;;;;18.55;53.09;99272.31;1083351;54;19950;-74
2022/08/14 03:59:18;;;;;;;;;;;;;;;18.60;52.81;99263.56;1083547;54;19957;-74
2022/08/14 04:00:25;;;;;;;;;;;;;;;18.67;52.57;99269.75;1083099;54;19939;-74
2022/08/14 04:01:26;;;;;;;;;;;;;;;18.73;52.04;99257.22;1083172;54;19953;-74
2022/08/14 04:02:30;;;;;;;;;;;;;;;18.76;52.20;99254.91;1083067;54;19950;-74
2022/08/14 04:03:31;;;;;;;;;;;;;;;18.79;51.96;99256.34;1083094;54;19939;-75
2022/08/14 04:04:34;;;;;;;;;;;;;;;18.81;52.03;99255.06;1083490;54;19947;-74
2022/08/14 04:05:37;;;;;;;;;;;;;;;18.85;51.53;99256.31;1083370;54;20456;-75
2022/08/14 04:06:41;;;;;;;;;;;;;;;18.87;51.59;99258.78;1083597;54;19958;-75
2022/08/14 04:07:42;;;;;;;;;;;;;;;18.91;51.57;99253.75;1083077;54;19946;-75
2022/08/14 04:08:46;;;;;;;;;;;;;;;18.93;51.32;99251.69;1083143;54;19962;-75
2022/08/14 04:09:47;;;;;;;;;;;;;;;18.92;51.13;99261.69;1083216;54;19953;-73
2022/08/14 04:10:51;;;;;;;;;;;;;;;18.97;51.08;99251.03;1083109;54;19953;-74
2022/08/14 04:11:52;;;;;;;;;;;;;;;19.00;51.22;99249.78;1083485;39;20030;-73
2022/08/14 04:12:58;;;;;;;;;;;;;;;18.99;50.94;99242.69;1083141;54;19973;-74
2022/08/14 04:14:00;;;;;;;;;;;;;;;18.95;51.23;99249.63;1082999;54;19945;-75
2022/08/14 04:15:04;;;;;;;;;;;;;;;18.93;51.28;99249.84;1083629;54;19946;-75
2022/08/14 04:16:09;;;;;;;;;;;;;;;18.89;51.35;99255.88;1083130;54;19946;-74
2022/08/14 04:17:13;;;;;;;;;;;;;;;18.86;51.03;99255.25;1083518;54;20465;-74
2022/08/14 04:18:14;;;;;;;;;;;;;;;18.82;51.54;99251.31;1082660;54;19947;-74
2022/08/14 04:19:22;;;;;;;;;;;;;;;18.80;51.29;99242.56;1083105;54;19939;-74
2022/08/14 04:20:23;;;;;;;;;;;;;;;18.75;51.63;99244.31;1083108;54;19938;-73
2022/08/14 04:21:29;;;;;;;;;;;;;;;18.71;51.66;99246.59;1083291;54;19950;-74
2022/08/14 04:22:30;;;;;;;;;;;;;;;18.64;52.06;99240.41;1083547;54;19950;-74
2022/08/14 04:23:34;;;;;;;;;;;;;;;18.52;52.43;99246.50;1083112;54;19958;-74
2022/08/14 04:24:35;;;;;;;;;;;;;;;18.47;52.60;99254.44;1083380;54;19947;-73
2022/08/14 04:25:39;;;;;;;;;;;;;;;18.46;52.98;99260.91;1083475;54;19939;-74
2022/08/14 04:26:43;;;;;;;;;;;;;;;18.44;52.99;99254.03;1083258;54;19939;-74
2022/08/14 04:27:44;;;;;;;;;;;;;;;18.41;53.10;99255.31;1083832;54;19946;-73
2022/08/14 04:28:48;;;;;;;;;;;;;;;18.35;53.15;99250.75;1083080;54;20438;-73
2022/08/14 04:29:49;;;;;;;;;;;;;;;18.30;53.84;99248.69;1083436;54;19946;-74
2022/08/14 04:30:53;;;;;;;;;;;;;;;18.30;53.95;99250.56;1083158;54;19947;-73
2022/08/14 04:31:57;;;;;;;;;;;;;;;18.29;53.91;99243.50;1083288;54;19939;-73
2022/08/14 04:33:01;;;;;;;;;;;;;;;18.26;54.24;99252.03;1083540;54;19946;-73
2022/08/14 04:34:04;;;;;;;;;;;;;;;18.19;54.32;99242.09;1083171;54;19938;-74
2022/08/14 04:35:09;;;;;;;;;;;;;;;18.20;54.33;99245.59;1083980;39;20589;-75
2022/08/14 04:36:10;;;;;;;;;;;;;;;18.16;54.41;99247.09;1083482;54;19939;-74
2022/08/14 04:43:48;;;;;;;;;;;;;;;18.13;54.42;99250.22;1082543;54;19946;-73
2022/08/14 04:44:51;;;;;;;;;;;;;;;18.11;55.00;99250.44;1082736;54;19977;-73
2022/08/14 04:45:54;;;;;;;;;;;;;;;18.10;55.07;99248.78;1083421;54;19971;-73
2022/08/14 04:48:15;;;;;;;;;;;;;;;18.14;54.71;99249.19;1084362;39;20438;-74
2022/08/14 04:49:20;;;;;;;;;;;;;;;18.09;54.37;99253.34;1082120;54;19950;-74
2022/08/14 04:50:21;;;;;;;;;;;;;;;18.08;54.48;99246.28;1082544;54;20462;-75
2022/08/14 04:51:26;;;;;;;;;;;;;;;18.07;54.40;99241.94;1083168;54;19956;-75
2022/08/14 04:52:27;;;;;;;;;;;;;;;18.08;54.48;99240.88;1083196;54;20450;-74
2022/08/14 04:53:32;;;;;;;;;;;;;;;18.15;54.52;99232.72;1083196;54;19977;-74
2022/08/14 04:54:34;;;;;;;;;;;;;;;18.12;54.45;99235.88;1083701;54;20476;-73
2022/08/14 04:55:37;;;;;;;;;;;;;;;18.12;54.61;99237.72;1083697;54;19947;-74
2022/08/14 04:56:39;;;;;;;;;;;;;;;18.10;54.79;99237.97;1083029;54;19969;-75
2022/08/14 04:57:42;;;;;;;;;;;;;;;18.11;54.47;99239.63;1083421;54;19947;-74
2022/08/14 04:58:46;;;;;;;;;;;;;;;18.14;54.18;99239.19;1083735;54;20095;-75
2022/08/14 04:59:51;;;;;;;;;;;;;;;18.10;54.07;99237.97;1083164;54;19946;-76
2022/08/14 05:00:53;;;;;;;;;;;;;;;18.09;54.36;99239.81;1083756;54;19970;-75
2022/08/14 05:01:57;;;;;;;;;;;;;;;18.10;54.38;99237.97;1083250;54;19943;-74
2022/08/14 05:03:02;;;;;;;;;;;;;;;18.14;54.33;99243.75;1082901;54;19946;-74
2022/08/14 05:04:07;;;;;;;;;;;;;;;18.18;53.90;99235.00;1083030;54;19946;-76
2022/08/14 05:05:08;;;;;;;;;;;;;;;18.24;53.73;99244.97;1084527;39;21306;-74
2022/08/14 05:06:13;;;;;;;;;;;;;;;18.33;53.76;99233.91;1084085;54;20497;-76
2022/08/14 05:07:14;;;;;;;;;;;;;;;18.41;53.60;99230.97;1084223;54;19953;-74
2022/08/14 05:08:18;;;;;;;;;;;;;;;18.45;53.63;99239.47;1083904;54;19942;-76
2022/08/14 05:09:19;;;;;;;;;;;;;;;18.53;53.58;99231.91;1084293;54;19942;-75
2022/08/14 05:10:24;;;;;;;;;;;;;;;18.48;54.08;99234.47;1083841;54;19951;-74
2022/08/14 05:11:26;;;;;;;;;;;;;;;18.46;54.47;99239.25;1084726;54;19946;-73
2022/08/14 05:12:30;;;;;;;;;;;;;;;18.44;54.44;99238.63;1084509;54;19969;-74
2022/08/14 05:13:32;;;;;;;;;;;;;;;18.42;55.13;99227.19;1084643;54;19950;-74
2022/08/14 05:14:36;;;;;;;;;;;;;;;18.42;54.85;99242.59;1084078;54;19946;-75
2022/08/14 05:15:40;;;;;;;;;;;;;;;18.37;55.47;99245.97;1084254;47;19951;-76
2022/08/14 05:16:42;;;;;;;;;;;;;;;18.34;55.52;99249.94;1083956;54;19943;-75
2022/08/14 05:17:48;;;;;;;;;;;;;;;18.33;55.59;99247.41;1083733;54;19954;-76
2022/08/14 05:18:52;;;;;;;;;;;;;;;18.35;55.89;99250.75;1083777;54;19971;-75
2022/08/14 05:19:56;;;;;;;;;;;;;;;18.34;55.99;99243.66;1083365;54;19946;-74
2022/08/14 05:20:58;;;;;;;;;;;;;;;18.30;56.79;99245.16;1083562;54;19958;-76
2022/08/14 05:22:02;;;;;;;;;;;;;;;18.21;56.91;99240.00;1083780;54;20049;-74
2022/08/14 05:23:04;;;;;;;;;;;;;;;18.23;56.97;99243.31;1083701;54;19947;-75
2022/08/14 05:24:09;;;;;;;;;;;;;;;18.24;56.89;99250.38;1083729;54;19970;-74
2022/08/14 05:25:11;;;;;;;;;;;;;;;18.18;56.78;99243.13;1083617;54;19951;-74
2022/08/14 05:26:16;;;;;;;;;;;;;;;18.12;56.49;99245.84;1083809;54;19953;-75
2022/08/14 05:27:19;;;;;;;;;;;;;;;18.04;56.78;99244.22;1083582;46;19973;-74
2022/08/14 05:28:24;;;;;;;;;;;;;;;17.97;56.74;99249.66;1083981;54;19946;-75
2022/08/14 05:29:25;;;;;;;;;;;;;;;17.98;56.39;99250.47;1084159;54;19947;-73
2022/08/14 05:30:29;;;;;;;;;;;;;;;17.90;56.34;99251.53;1083550;54;19974;-74
2022/08/14 05:31:30;;;;;;;;;;;;;;;17.91;56.56;99261.28;1084248;54;19970;-75
2022/08/14 05:32:34;;;;;;;;;;;;;;;17.99;56.30;99252.13;1085646;54;20002;-74
2022/08/14 05:33:36;;;;;;;;;;;;;;;18.03;56.25;99253.38;1085584;47;19946;-74
2022/08/14 05:34:42;;;;;;;;;;;;;;;17.98;56.46;99247.78;1085837;54;20063;-73
2022/08/14 05:35:44;;;;;;;;;;;;;;;18.10;55.73;99246.06;1084871;54;19953;-75
2022/08/14 05:36:48;;;;;;;;;;;;;;;18.20;55.38;99249.16;1084814;54;19950;-74
2022/08/14 05:37:49;;;;;;;;;;;;;;;18.34;54.90;99243.66;1084946;54;19957;-74
2022/08/14 05:38:54;;;;;;;;;;;;;;;18.44;54.84;99243.22;1084587;54;19950;-75
2022/08/14 05:39:55;;;;;;;;;;;;;;;18.48;54.64;99250.69;1084588;39;20426;-73
2022/08/14 05:40:59;;;;;;;;;;;;;;;18.50;54.52;99242.34;1086508;39;20346;-74
2022/08/14 05:42:01;;;;;;;;;;;;;;;18.44;54.72;99249.44;1084845;54;19951;-74